createdAt,value
2024-02-13T00:02:12.721Z,93766.44
2024-02-13T00:04:39.611Z,93767.63
2024-02-13T00:07:06.275Z,93777.00
2024-02-13T00:09:33.122Z,93777.81
2024-02-13T00:12:02.239Z,93774.44
2024-02-13T00:14:29.653Z,93780.69
2024-02-13T00:16:57.798Z,93788.88
2024-02-13T00:19:25.399Z,93779.25
2024-02-13T00:21:52.200Z,93787.09
2024-02-13T00:24:19.027Z,93802.72
2024-02-13T00:26:46.009Z,93804.38
2024-02-13T00:29:13.528Z,93808.00
2024-02-13T00:31:43.364Z,93814.88
2024-02-13T00:34:10.090Z,93824.84
2024-02-13T00:36:36.876Z,93827.97
2024-02-13T00:39:04.334Z,93825.00
2024-02-13T00:41:31.257Z,93826.59
2024-02-13T00:43:58.688Z,93831.31
2024-02-13T00:46:25.424Z,93831.06
2024-02-13T00:48:53.641Z,93832.66
2024-02-13T00:51:20.401Z,93829.78
2024-02-13T00:53:47.181Z,93836.34
2024-02-13T00:56:13.935Z,93829.25
2024-02-13T00:58:44.584Z,93840.81
2024-02-13T01:01:11.879Z,93847.75
2024-02-13T01:03:39.024Z,93852.47
2024-02-13T01:06:09.193Z,93855.09
2024-02-13T01:08:36.559Z,93850.88
2024-02-13T01:11:03.394Z,93858.16
2024-02-13T01:13:31.089Z,93863.22
2024-02-13T01:15:58.090Z,93868.53
2024-02-13T01:18:25.667Z,93879.34
2024-02-13T01:20:52.699Z,93873.50
2024-02-13T01:23:19.473Z,93882.69
2024-02-13T01:25:47.507Z,93885.03
2024-02-13T01:28:14.239Z,93886.47
2024-02-13T01:30:41.067Z,93890.59
2024-02-13T01:33:08.024Z,93903.34
2024-02-13T01:35:35.840Z,93898.53
2024-02-13T01:38:02.613Z,93900.00
2024-02-13T01:40:29.328Z,93903.13
2024-02-13T01:42:56.010Z,93898.56
2024-02-13T01:45:23.619Z,93902.44
2024-02-13T01:47:50.515Z,93905.13
2024-02-13T01:50:21.677Z,93905.75
2024-02-13T01:52:52.650Z,93903.63
2024-02-13T01:55:22.072Z,93918.50
2024-02-13T01:57:50.192Z,93914.22
2024-02-13T02:00:17.969Z,93914.16
2024-02-13T02:02:48.192Z,93922.56
2024-02-13T02:05:15.404Z,93927.88
2024-02-13T02:07:43.346Z,93940.09
2024-02-13T02:10:10.661Z,93935.06
2024-02-13T02:12:38.396Z,93938.28
2024-02-13T02:15:05.810Z,93937.38
2024-02-13T02:17:33.209Z,93941.91
2024-02-13T02:19:59.996Z,93948.47
2024-02-13T02:22:26.710Z,93940.22
2024-02-13T02:24:53.520Z,93943.88
2024-02-13T02:27:20.812Z,93945.75
2024-02-13T02:29:48.608Z,93943.81
2024-02-13T02:32:15.442Z,93943.19
2024-02-13T02:34:42.275Z,93948.25
2024-02-13T02:37:09.079Z,93944.69
2024-02-13T02:39:35.781Z,93956.47
2024-02-13T02:42:02.550Z,93955.44
2024-02-13T02:44:29.370Z,93956.03
2024-02-13T02:46:56.086Z,93963.97
2024-02-13T02:49:22.858Z,93966.41
2024-02-13T02:51:49.582Z,93950.78
2024-02-13T02:54:16.251Z,93949.66
2024-02-13T02:56:43.642Z,93961.00
2024-02-13T02:59:10.366Z,93965.09
2024-02-13T03:01:38.066Z,93965.44
2024-02-13T03:04:10.317Z,93971.19
2024-02-13T03:06:39.777Z,93969.09
2024-02-13T03:09:06.731Z,93980.94
2024-02-13T03:11:35.387Z,93963.50
2024-02-13T03:14:02.416Z,93975.50
2024-02-13T03:16:31.169Z,93976.84
2024-02-13T03:18:58.050Z,93983.97
2024-02-13T03:21:24.812Z,93992.66
2024-02-13T03:23:51.637Z,93993.19
2024-02-13T03:26:18.521Z,93992.13
2024-02-13T03:28:45.305Z,93988.53
2024-02-13T03:31:11.997Z,93990.59
2024-02-13T03:33:38.812Z,93993.38
2024-02-13T03:36:05.965Z,93990.69
2024-02-13T03:38:32.784Z,93995.66
2024-02-13T03:41:01.112Z,93989.13
2024-02-13T03:43:27.849Z,93993.66
2024-02-13T03:45:54.717Z,93987.47
2024-02-13T03:48:25.575Z,93996.56
2024-02-13T03:51:02.943Z,93996.97
2024-02-13T03:53:30.447Z,93998.03
2024-02-13T03:55:57.222Z,94002.81
2024-02-13T03:58:23.979Z,93993.72
2024-02-13T04:00:50.796Z,94003.03
2024-02-13T04:03:17.463Z,94010.38
2024-02-13T04:05:44.226Z,94015.47
2024-02-13T04:08:11.253Z,94008.00
2024-02-13T04:10:38.574Z,94016.94
2024-02-13T04:13:08.144Z,94025.19
2024-02-13T04:15:43.057Z,94022.06
2024-02-13T04:18:31.401Z,94017.00
2024-02-13T04:20:59.763Z,94018.66
2024-02-13T04:23:41.564Z,94028.16
2024-02-13T04:26:18.093Z,94027.53
2024-02-13T04:28:52.397Z,94028.41
2024-02-13T04:31:19.114Z,94020.41
2024-02-13T04:33:46.120Z,94028.50
2024-02-13T04:36:12.963Z,94033.53
2024-02-13T04:38:39.693Z,94034.22
2024-02-13T04:41:06.500Z,94030.56
2024-02-13T04:43:34.800Z,94029.00
2024-02-13T04:46:03.420Z,94028.13
2024-02-13T04:48:31.596Z,94042.22
2024-02-13T04:50:58.559Z,94037.91
2024-02-13T04:53:25.352Z,94037.91
2024-02-13T04:55:52.139Z,94040.78
2024-02-13T04:58:19.328Z,94039.34
2024-02-13T05:00:52.800Z,94032.13
2024-02-13T05:03:27.404Z,94039.56
2024-02-13T05:06:12.765Z,94044.41
2024-02-13T05:08:39.625Z,94038.19
2024-02-13T05:11:06.390Z,94032.38
2024-02-13T05:13:33.059Z,94038.91
2024-02-13T05:16:01.681Z,94037.09
2024-02-13T05:18:28.586Z,94044.28
2024-02-13T05:20:56.655Z,94043.41
2024-02-13T05:23:24.318Z,94044.53
2024-02-13T05:25:51.043Z,94046.78
2024-02-13T05:28:17.773Z,94053.66
2024-02-13T05:30:44.678Z,94055.00
2024-02-13T05:33:13.126Z,94053.03
2024-02-13T05:35:40.153Z,94048.19
2024-02-13T05:38:06.910Z,94050.88
2024-02-13T05:40:35.902Z,94056.75
2024-02-13T05:43:03.794Z,94057.44
2024-02-13T05:45:30.825Z,94059.00
2024-02-13T05:47:58.266Z,94064.94
2024-02-13T05:50:24.997Z,94062.03
2024-02-13T05:52:53.866Z,94053.28
2024-02-13T05:55:20.632Z,94063.63
2024-02-13T05:57:47.342Z,94065.97
2024-02-13T06:00:16.072Z,94068.13
2024-02-13T06:02:43.409Z,94066.19
2024-02-13T06:05:15.539Z,94057.56
2024-02-13T06:07:42.629Z,94069.94
2024-02-13T06:10:11.271Z,94068.13
2024-02-13T06:12:39.767Z,94074.88
2024-02-13T06:15:08.267Z,94068.22
2024-02-13T06:17:35.264Z,94069.94
2024-02-13T06:20:06.313Z,94071.81
2024-02-13T06:22:33.915Z,94064.44
2024-02-13T06:25:06.040Z,94074.44
2024-02-13T06:27:34.373Z,94072.63
2024-02-13T06:30:02.164Z,94072.97
2024-02-13T06:32:30.158Z,94072.84
2024-02-13T06:34:57.144Z,94080.59
2024-02-13T06:37:24.454Z,94092.84
2024-02-13T06:39:51.380Z,94087.56
2024-02-13T06:42:18.369Z,94096.41
2024-02-13T06:44:45.126Z,94096.97
2024-02-13T06:47:13.327Z,94101.47
2024-02-13T06:49:40.318Z,94098.22
2024-02-13T06:52:07.618Z,94109.31
2024-02-13T06:54:34.330Z,94108.44
2024-02-13T06:57:01.222Z,94107.19
2024-02-13T06:59:31.244Z,94109.31
2024-02-13T07:01:58.112Z,94112.13
2024-02-13T07:04:24.928Z,94113.91
2024-02-13T07:07:07.992Z,94121.88
2024-02-13T07:09:41.359Z,94122.56
2024-02-13T07:12:09.289Z,94120.06
2024-02-13T07:14:36.100Z,94123.78
2024-02-13T07:17:02.873Z,94124.44
2024-02-13T07:19:30.089Z,94131.84
2024-02-13T07:21:56.908Z,94133.94
2024-02-13T07:24:23.677Z,94132.75
2024-02-13T07:26:50.390Z,94134.50
2024-02-13T07:29:17.456Z,94141.00
2024-02-13T07:31:44.632Z,94144.34
2024-02-13T07:34:12.320Z,94147.97
2024-02-13T07:36:39.466Z,94143.75
2024-02-13T07:39:06.864Z,94140.09
2024-02-13T07:41:36.409Z,94133.81
2024-02-13T07:44:03.415Z,94133.03
2024-02-13T07:46:30.605Z,94134.09
2024-02-13T07:48:57.500Z,94134.38
2024-02-13T07:51:24.292Z,94128.50
2024-02-13T07:53:51.272Z,94131.41
2024-02-13T07:56:20.278Z,94127.69
2024-02-13T07:58:47.038Z,94123.13
2024-02-13T08:01:22.025Z,94129.41
2024-02-13T08:03:48.764Z,94122.50
2024-02-13T08:06:15.746Z,94125.84
2024-02-13T08:08:42.744Z,94119.47
2024-02-13T08:11:11.270Z,94131.44
2024-02-13T08:13:38.826Z,94128.16
2024-02-13T08:16:08.022Z,94134.53
2024-02-13T08:18:36.043Z,94132.19
2024-02-13T08:21:03.207Z,94134.66
2024-02-13T08:23:34.307Z,94137.03
2024-02-13T08:26:01.158Z,94131.06
2024-02-13T08:28:27.892Z,94133.34
2024-02-13T08:30:54.641Z,94130.63
2024-02-13T08:33:22.947Z,94128.75
2024-02-13T08:35:53.843Z,94129.63
2024-02-13T08:38:21.616Z,94137.06
2024-02-13T08:40:48.499Z,94138.19
2024-02-13T08:43:15.326Z,94141.53
2024-02-13T08:45:42.051Z,94142.88
2024-02-13T08:48:09.023Z,94134.25
2024-02-13T08:50:36.157Z,94130.41
2024-02-13T08:53:02.906Z,94142.88
2024-02-13T08:55:29.581Z,94142.44
2024-02-13T08:57:57.640Z,94138.03
2024-02-13T09:00:24.426Z,94140.38
2024-02-13T09:02:51.309Z,94134.75
2024-02-13T09:05:18.261Z,94141.91
2024-02-13T09:07:45.025Z,94147.00
2024-02-13T09:10:13.603Z,94146.34
2024-02-13T09:12:40.736Z,94158.47
2024-02-13T09:15:12.577Z,94153.44
2024-02-13T09:17:43.545Z,94148.88
2024-02-13T09:20:16.166Z,94153.59
2024-02-13T09:22:45.756Z,94143.13
2024-02-13T09:25:21.124Z,94139.25
2024-02-13T09:27:49.461Z,94144.56
2024-02-13T09:30:18.124Z,94140.94
2024-02-13T09:32:49.470Z,94142.16
2024-02-13T09:35:17.093Z,94135.00
2024-02-13T09:37:44.831Z,94127.09
2024-02-13T09:40:17.318Z,94128.53
2024-02-13T09:42:45.641Z,94124.84
2024-02-13T09:45:14.639Z,94137.84
2024-02-13T09:47:41.981Z,94140.38
2024-02-13T09:50:13.372Z,94136.69
2024-02-13T09:52:44.925Z,94144.81
2024-02-13T09:55:12.119Z,94134.06
2024-02-13T09:57:41.961Z,94131.69
2024-02-13T10:00:16.251Z,94140.16
2024-02-13T10:02:43.715Z,94150.97
2024-02-13T10:05:11.942Z,94157.19
2024-02-13T10:07:41.820Z,94157.44
2024-02-13T10:10:13.601Z,94152.06
2024-02-13T10:13:06.846Z,94160.81
2024-02-13T10:15:41.327Z,94163.50
2024-02-13T10:18:10.002Z,94160.75
2024-02-13T10:20:38.887Z,94154.41
2024-02-13T10:23:06.901Z,94162.66
2024-02-13T10:25:35.364Z,94162.47
2024-02-13T10:28:03.210Z,94160.66
2024-02-13T10:30:34.013Z,94162.81
2024-02-13T10:33:03.081Z,94162.59
2024-02-13T10:35:33.666Z,94153.44
2024-02-13T10:38:01.276Z,94149.06
2024-02-13T10:40:31.644Z,94150.19
2024-02-13T10:42:59.573Z,94142.84
2024-02-13T10:45:31.802Z,94147.59
2024-02-13T10:48:19.809Z,94150.78
2024-02-13T10:50:46.986Z,94151.94
2024-02-13T10:53:15.419Z,94155.97
2024-02-13T10:55:44.176Z,94149.31
2024-02-13T10:58:23.963Z,94155.56
2024-02-13T11:00:56.488Z,94153.44
2024-02-13T11:03:26.907Z,94156.06
2024-02-13T11:05:53.815Z,94148.63
2024-02-13T11:08:21.417Z,94152.53
2024-02-13T11:10:48.177Z,94165.03
2024-02-13T11:13:19.563Z,94155.34
2024-02-13T11:15:47.703Z,94146.56
2024-02-13T11:18:15.029Z,94152.69
2024-02-13T11:20:45.387Z,94145.66
2024-02-13T11:23:17.591Z,94157.44
2024-02-13T11:25:58.748Z,94140.88
2024-02-13T11:28:33.265Z,94143.84
2024-02-13T11:31:00.093Z,94147.50
2024-02-13T11:33:27.010Z,94160.69
2024-02-13T11:35:58.090Z,94149.34
2024-02-13T11:38:30.255Z,94147.41
2024-02-13T11:40:57.121Z,94150.84
2024-02-13T11:43:25.759Z,94158.38
2024-02-13T11:45:52.661Z,94151.88
2024-02-13T11:48:32.457Z,94151.13
2024-02-13T11:51:03.492Z,94149.69
2024-02-13T11:53:31.546Z,94151.84
2024-02-13T11:55:58.836Z,94150.41
2024-02-13T11:58:27.805Z,94145.69
2024-02-13T12:01:06.129Z,94144.44
2024-02-13T12:03:34.761Z,94148.84
2024-02-13T12:06:06.496Z,94154.03
2024-02-13T12:08:35.326Z,94148.63
2024-02-13T12:11:03.673Z,94153.88
2024-02-13T12:13:31.954Z,94156.13
2024-02-13T12:15:59.378Z,94151.03
2024-02-13T12:18:31.240Z,94142.25
2024-02-13T12:20:59.649Z,94138.31
2024-02-13T12:23:27.100Z,94138.38
2024-02-13T12:26:05.696Z,94132.28
2024-02-13T12:28:33.646Z,94132.47
2024-02-13T12:31:03.635Z,94121.38
2024-02-13T12:33:30.630Z,94136.97
2024-02-13T12:36:02.379Z,94124.94
2024-02-13T12:38:31.505Z,94114.44
2024-02-13T12:40:59.113Z,94110.22
2024-02-13T12:43:28.902Z,94116.25
2024-02-13T12:46:06.432Z,94118.97
2024-02-13T12:48:40.563Z,94121.88
2024-02-13T12:51:11.890Z,94111.41
2024-02-13T12:53:41.068Z,94115.22
2024-02-13T12:56:10.207Z,94117.78
2024-02-13T12:58:38.227Z,94110.53
2024-02-13T13:01:05.509Z,94106.94
2024-02-13T13:03:32.492Z,94112.31
2024-02-13T13:05:59.681Z,94117.91
2024-02-13T13:08:28.122Z,94106.25
2024-02-13T13:10:55.273Z,94096.66
2024-02-13T13:13:24.422Z,94094.63
2024-02-13T13:15:51.689Z,94104.16
2024-02-13T13:18:23.821Z,94089.94
2024-02-13T13:20:52.858Z,94099.34
2024-02-13T13:23:22.300Z,94098.41
2024-02-13T13:25:53.389Z,94100.16
2024-02-13T13:28:21.403Z,94103.63
2024-02-13T13:30:55.533Z,94100.22
2024-02-13T13:33:24.204Z,94102.13
2024-02-13T13:35:51.285Z,94101.44
2024-02-13T13:38:18.837Z,94097.56
2024-02-13T13:40:47.232Z,94104.72
2024-02-13T13:43:17.952Z,94097.56
2024-02-13T13:45:58.119Z,94095.56
2024-02-13T13:48:26.523Z,94090.53
2024-02-13T13:50:54.257Z,94090.78
2024-02-13T13:53:22.471Z,94093.31
2024-02-13T13:55:49.366Z,94093.44
2024-02-13T13:58:16.138Z,94094.94
2024-02-13T14:00:44.710Z,94097.84
2024-02-13T14:03:12.919Z,94103.31
2024-02-13T14:05:40.821Z,94096.69
2024-02-13T14:08:10.300Z,94097.34
2024-02-13T14:10:38.391Z,94098.63
2024-02-13T14:13:05.609Z,94103.72
2024-02-13T14:15:35.461Z,94109.34
2024-02-13T14:18:05.579Z,94096.38
2024-02-13T14:20:38.795Z,94103.66
2024-02-13T14:23:15.185Z,94100.06
2024-02-13T14:25:41.972Z,94098.06
2024-02-13T14:28:10.701Z,94100.88
2024-02-13T14:30:37.500Z,94106.59
2024-02-13T14:33:08.175Z,94099.53
2024-02-13T14:35:35.754Z,94099.53
2024-02-13T14:38:04.298Z,94105.78
2024-02-13T14:40:32.502Z,94097.16
2024-02-13T14:42:59.257Z,94104.41
2024-02-13T14:45:27.011Z,94097.16
2024-02-13T14:47:53.774Z,94096.00
2024-02-13T14:50:21.791Z,94101.97
2024-02-13T14:52:49.258Z,94094.63
2024-02-13T14:55:18.226Z,94095.72
2024-02-13T14:57:56.179Z,94096.09
2024-02-13T15:00:33.278Z,94102.84
2024-02-13T15:03:01.300Z,94106.34
2024-02-13T15:05:28.467Z,94108.25
2024-02-13T15:07:55.737Z,94115.31
2024-02-13T15:10:22.456Z,94121.59
2024-02-13T15:12:49.632Z,94118.09
2024-02-13T15:15:18.922Z,94124.28
2024-02-13T15:17:47.288Z,94123.50
2024-02-13T15:20:15.846Z,94109.06
2024-02-13T15:22:42.902Z,94113.03
2024-02-13T15:25:10.308Z,94115.34
2024-02-13T15:27:39.287Z,94112.56
2024-02-13T15:30:10.921Z,94119.50
2024-02-13T15:32:38.569Z,94116.31
2024-02-13T15:35:10.861Z,94106.50
2024-02-13T15:37:56.888Z,94112.34
2024-02-13T15:40:42.299Z,94110.81
2024-02-13T15:43:27.643Z,94108.44
2024-02-13T15:46:12.693Z,94104.94
2024-02-13T15:48:39.674Z,94103.81
2024-02-13T15:51:07.471Z,94105.44
2024-02-13T15:53:35.425Z,94107.50
2024-02-13T15:56:04.768Z,94109.13
2024-02-13T15:58:32.843Z,94114.66
2024-02-13T16:01:00.853Z,94118.19
2024-02-13T16:03:28.138Z,94117.41
2024-02-13T16:05:56.434Z,94119.00
2024-02-13T16:08:25.938Z,94118.59
2024-02-13T16:10:52.721Z,94121.38
2024-02-13T16:13:20.242Z,94124.47
2024-02-13T16:15:47.908Z,94126.84
2024-02-13T16:18:15.233Z,94129.19
2024-02-13T16:20:42.158Z,94127.59
2024-02-13T16:23:10.049Z,94138.47
2024-02-13T16:25:37.060Z,94140.03
2024-02-13T16:28:06.749Z,94154.00
2024-02-13T16:30:34.800Z,94153.25
2024-02-13T16:33:05.407Z,94157.81
2024-02-13T16:35:32.717Z,94153.50
2024-02-13T16:37:59.491Z,94164.44
2024-02-13T16:40:27.759Z,94169.06
2024-02-13T16:42:56.886Z,94169.41
2024-02-13T16:45:25.824Z,94171.78
2024-02-13T16:47:56.622Z,94177.97
2024-02-13T16:50:23.945Z,94184.78
2024-02-13T16:52:53.113Z,94178.50
2024-02-13T16:55:20.381Z,94180.78
2024-02-13T16:57:48.709Z,94186.94
2024-02-13T17:00:15.724Z,94186.47
2024-02-13T17:02:42.866Z,94180.75
2024-02-13T17:05:13.486Z,94181.09
2024-02-13T17:07:41.799Z,94182.38
2024-02-13T17:10:19.206Z,94185.59
2024-02-13T17:12:45.963Z,94180.16
2024-02-13T17:15:14.352Z,94177.44
2024-02-13T17:17:42.923Z,94186.81
2024-02-13T17:20:13.315Z,94191.09
2024-02-13T17:22:43.559Z,94189.13
2024-02-13T17:25:11.845Z,94191.78
2024-02-13T17:27:39.261Z,94186.97
2024-02-13T17:30:06.495Z,94194.38
2024-02-13T17:32:33.328Z,94192.81
2024-02-13T17:35:00.159Z,94193.16
2024-02-13T17:37:27.028Z,94197.00
2024-02-13T17:39:53.792Z,94193.94
2024-02-13T17:42:20.593Z,94195.47
2024-02-13T17:44:47.496Z,94199.00
2024-02-13T17:47:14.304Z,94203.69
2024-02-13T17:49:41.679Z,94200.94
2024-02-13T17:52:10.959Z,94202.81
2024-02-13T17:54:37.702Z,94205.69
2024-02-13T17:57:04.825Z,94207.38
2024-02-13T17:59:31.731Z,94210.09
2024-02-13T18:01:58.512Z,94214.66
2024-02-13T18:04:26.558Z,94213.72
2024-02-13T18:06:53.357Z,94217.53
2024-02-13T18:09:20.118Z,94214.81
2024-02-13T18:11:47.118Z,94220.88
2024-02-13T18:14:13.901Z,94225.00
2024-02-13T18:16:41.697Z,94233.69
2024-02-13T18:19:09.301Z,94227.44
2024-02-13T18:21:38.712Z,94226.25
2024-02-13T18:24:05.880Z,94223.81
2024-02-13T18:26:32.750Z,94224.16
2024-02-13T18:28:59.519Z,94217.06
2024-02-13T18:31:26.214Z,94224.00
2024-02-13T18:33:53.134Z,94224.94
2024-02-13T18:36:20.809Z,94228.53
2024-02-13T18:38:49.574Z,94225.66
2024-02-13T18:41:20.187Z,94230.31
2024-02-13T18:43:50.072Z,94224.06
2024-02-13T18:46:16.898Z,94228.66
2024-02-13T18:48:43.966Z,94220.69
2024-02-13T18:51:10.935Z,94213.13
2024-02-13T18:53:37.722Z,94216.56
2024-02-13T18:56:04.685Z,94222.44
2024-02-13T18:58:36.622Z,94220.25
2024-02-13T19:01:04.665Z,94220.69
2024-02-13T19:03:32.190Z,94219.19
2024-02-13T19:06:04.430Z,94223.81
2024-02-13T19:08:32.417Z,94222.94
2024-02-13T19:10:59.926Z,94218.72
2024-02-13T19:13:29.759Z,94222.63
2024-02-13T19:15:56.507Z,94222.50
2024-02-13T19:18:24.538Z,94225.66
2024-02-13T19:20:55.389Z,94221.84
2024-02-13T19:23:24.848Z,94219.41
2024-02-13T19:25:52.016Z,94224.13
2024-02-13T19:28:18.821Z,94224.25
2024-02-13T19:30:51.611Z,94225.41
2024-02-13T19:33:18.820Z,94224.66
2024-02-13T19:35:46.719Z,94220.94
2024-02-13T19:38:15.082Z,94225.56
2024-02-13T19:40:43.048Z,94224.66
2024-02-13T19:43:09.898Z,94223.72
2024-02-13T19:45:39.528Z,94217.16
2024-02-13T19:48:06.870Z,94220.66
2024-02-13T19:50:33.792Z,94224.91
2024-02-13T19:53:02.555Z,94226.84
2024-02-13T19:55:29.381Z,94231.19
2024-02-13T19:57:59.433Z,94226.16
2024-02-13T20:00:26.241Z,94229.13
2024-02-13T20:02:52.944Z,94235.63
2024-02-13T20:05:21.672Z,94224.72
2024-02-13T20:07:48.501Z,94226.66
2024-02-13T20:10:18.047Z,94232.72
2024-02-13T20:12:44.892Z,94232.28
2024-02-13T20:15:12.557Z,94232.56
2024-02-13T20:17:39.885Z,94225.06
2024-02-13T20:20:09.665Z,94232.59
2024-02-13T20:22:36.544Z,94232.81
2024-02-13T20:25:03.506Z,94239.97
2024-02-13T20:27:31.628Z,94243.84
2024-02-13T20:29:58.501Z,94236.75
2024-02-13T20:32:25.796Z,94238.53
2024-02-13T20:34:52.851Z,94246.16
2024-02-13T20:37:21.351Z,94237.59
2024-02-13T20:39:48.139Z,94249.88
2024-02-13T20:42:14.945Z,94245.09
2024-02-13T20:44:41.744Z,94258.09
2024-02-13T20:47:08.606Z,94247.72
2024-02-13T20:49:36.915Z,94251.13
2024-02-13T20:52:03.842Z,94253.84
2024-02-13T20:54:30.625Z,94254.09
2024-02-13T20:56:58.429Z,94252.44
2024-02-13T20:59:29.817Z,94256.97
2024-02-13T21:01:58.864Z,94254.19
2024-02-13T21:04:29.654Z,94258.72
2024-02-13T21:07:01.165Z,94262.91
2024-02-13T21:09:28.233Z,94260.88
2024-02-13T21:11:55.635Z,94256.53
2024-02-13T21:14:23.153Z,94264.63
2024-02-13T21:16:49.976Z,94263.94
2024-02-13T21:19:16.821Z,94263.94
2024-02-13T21:22:02.216Z,94267.88
2024-02-13T21:24:29.738Z,94269.88
2024-02-13T21:26:56.572Z,94271.00
2024-02-13T21:29:23.620Z,94264.38
2024-02-13T21:31:50.548Z,94267.88
2024-02-13T21:34:19.665Z,94268.09
2024-02-13T21:36:46.603Z,94272.06
2024-02-13T21:39:13.432Z,94274.50
2024-02-13T21:41:40.312Z,94275.81
2024-02-13T21:44:07.092Z,94276.59
2024-02-13T21:46:33.904Z,94284.00
2024-02-13T21:49:00.909Z,94277.06
2024-02-13T21:51:27.882Z,94280.16
2024-02-13T21:53:54.718Z,94279.59
2024-02-13T21:56:23.252Z,94283.28
2024-02-13T21:58:51.163Z,94277.06
2024-02-13T22:01:17.896Z,94279.94
2024-02-13T22:03:44.711Z,94279.16
2024-02-13T22:06:16.183Z,94272.59
2024-02-13T22:08:44.073Z,94271.81
2024-02-13T22:11:12.057Z,94278.81
2024-02-13T22:13:38.889Z,94275.41
2024-02-13T22:16:06.171Z,94278.22
2024-02-13T22:18:33.055Z,94274.91
2024-02-13T22:21:00.053Z,94274.56
2024-02-13T22:23:26.947Z,94277.09
2024-02-13T22:25:57.868Z,94270.56
2024-02-13T22:28:24.792Z,94271.44
2024-02-13T22:30:51.625Z,94271.63
2024-02-13T22:33:18.510Z,94274.50
2024-02-13T22:35:45.867Z,94277.22
2024-02-13T22:38:12.606Z,94277.66
2024-02-13T22:40:39.304Z,94279.56
2024-02-13T22:43:06.103Z,94281.50
2024-02-13T22:45:32.803Z,94278.25
2024-02-13T22:48:02.055Z,94281.50
2024-02-13T22:50:29.897Z,94282.19
2024-02-13T22:53:00.564Z,94288.91
2024-02-13T22:55:29.955Z,94285.75
2024-02-13T22:57:58.540Z,94293.63
2024-02-13T23:00:43.794Z,94296.75
2024-02-13T23:03:11.059Z,94295.41
2024-02-13T23:05:38.760Z,94307.06
2024-02-13T23:08:07.007Z,94306.47
2024-02-13T23:10:33.977Z,94304.69
2024-02-13T23:13:00.733Z,94308.50
2024-02-13T23:15:27.528Z,94303.25
2024-02-13T23:17:54.609Z,94309.09
2024-02-13T23:20:22.495Z,94309.44
2024-02-13T23:22:52.878Z,94303.97
2024-02-13T23:25:21.199Z,94303.28
2024-02-13T23:27:49.323Z,94307.66
2024-02-13T23:30:16.278Z,94310.38
2024-02-13T23:32:43.226Z,94311.53
2024-02-13T23:35:10.220Z,94306.13
2024-02-13T23:37:36.939Z,94308.38
2024-02-13T23:40:14.649Z,94308.44
2024-02-13T23:42:44.035Z,94310.25
2024-02-13T23:45:11.427Z,94304.09
2024-02-13T23:47:39.474Z,94298.47
2024-02-13T23:50:10.256Z,94291.63
2024-02-13T23:52:38.493Z,94300.63
2024-02-13T23:55:06.806Z,94298.44
2024-02-13T23:57:34.095Z,94301.75
